sensor_id;sensor_type;location;lat;lon;timestamp;P1;durP1;ratioP1;P2;durP2;ratioP2
51174;SDS011;37240;50.104;20.010;2022-12-18T00:02:17;127.70;;;38.38;;
51174;SDS011;37240;50.104;20.010;2022-12-18T00:07:18;124.63;;;37.58;;
51174;SDS011;37240;50.104;20.010;2022-12-18T00:12:18;125.63;;;38.22;;
51174;SDS011;37240;50.104;20.010;2022-12-18T00:17:19;120.10;;;36.80;;
51174;SDS011;37240;50.104;20.010;2022-12-18T00:22:19;119.35;;;35.88;;
51174;SDS011;37240;50.104;20.010;2022-12-18T00:27:20;118.20;;;36.83;;
51174;SDS011;37240;50.104;20.010;2022-12-18T00:32:20;131.48;;;37.15;;
51174;SDS011;37240;50.104;20.010;2022-12-18T00:37:21;119.10;;;38.25;;
51174;SDS011;37240;50.104;20.010;2022-12-18T00:42:21;119.60;;;34.67;;
51174;SDS011;37240;50.104;20.010;2022-12-18T00:47:22;119.28;;;35.05;;
51174;SDS011;37240;50.104;20.010;2022-12-18T00:52:22;95.35;;;31.85;;
51174;SDS011;37240;50.104;20.010;2022-12-18T00:57:23;83.03;;;26.85;;
51174;SDS011;37240;50.104;20.010;2022-12-18T01:02:23;72.78;;;25.02;;
51174;SDS011;37240;50.104;20.010;2022-12-18T01:07:24;70.25;;;22.75;;
51174;SDS011;37240;50.104;20.010;2022-12-18T01:12:25;69.55;;;23.75;;
51174;SDS011;37240;50.104;20.010;2022-12-18T01:17:25;65.63;;;22.73;;
51174;SDS011;37240;50.104;20.010;2022-12-18T01:22:26;67.00;;;20.38;;
51174;SDS011;37240;50.104;20.010;2022-12-18T01:27:26;70.03;;;24.23;;
51174;SDS011;37240;50.104;20.010;2022-12-18T01:32:29;76.15;;;24.60;;
51174;SDS011;37240;50.104;20.010;2022-12-18T01:37:30;57.03;;;19.88;;
51174;SDS011;37240;50.104;20.010;2022-12-18T01:42:31;56.78;;;20.27;;
51174;SDS011;37240;50.104;20.010;2022-12-18T01:52:32;66.72;;;22.13;;
51174;SDS011;37240;50.104;20.010;2022-12-18T01:57:34;56.92;;;20.40;;
51174;SDS011;37240;50.104;20.010;2022-12-18T02:02:35;61.28;;;22.40;;
51174;SDS011;37240;50.104;20.010;2022-12-18T02:18:21;67.03;;;21.27;;
51174;SDS011;37240;50.104;20.010;2022-12-18T02:29:25;56.90;;;20.77;;
51174;SDS011;37240;50.104;20.010;2022-12-18T02:34:26;55.40;;;20.40;;
51174;SDS011;37240;50.104;20.010;2022-12-18T02:39:30;60.30;;;20.42;;
51174;SDS011;37240;50.104;20.010;2022-12-18T02:44:33;58.63;;;18.98;;
51174;SDS011;37240;50.104;20.010;2022-12-18T03:00:25;55.22;;;19.65;;
51174;SDS011;37240;50.104;20.010;2022-12-18T03:05:43;57.25;;;22.23;;
51174;SDS011;37240;50.104;20.010;2022-12-18T03:10:48;65.75;;;22.35;;
51174;SDS011;37240;50.104;20.010;2022-12-18T03:16:02;73.47;;;23.13;;
51174;SDS011;37240;50.104;20.010;2022-12-18T03:21:06;70.32;;;25.67;;
51174;SDS011;37240;50.104;20.010;2022-12-18T03:26:10;71.25;;;22.95;;
51174;SDS011;37240;50.104;20.010;2022-12-18T03:31:14;67.35;;;24.15;;
51174;SDS011;37240;50.104;20.010;2022-12-18T03:36:15;81.75;;;27.50;;
51174;SDS011;37240;50.104;20.010;2022-12-18T03:41:23;92.55;;;28.17;;
51174;SDS011;37240;50.104;20.010;2022-12-18T03:52:10;100.70;;;28.10;;
51174;SDS011;37240;50.104;20.010;2022-12-18T03:57:25;105.38;;;30.27;;
51174;SDS011;37240;50.104;20.010;2022-12-18T04:02:29;105.93;;;32.23;;
51174;SDS011;37240;50.104;20.010;2022-12-18T04:07:31;94.90;;;29.55;;
51174;SDS011;37240;50.104;20.010;2022-12-18T04:12:32;96.50;;;30.35;;
51174;SDS011;37240;50.104;20.010;2022-12-18T04:17:32;101.13;;;30.33;;
51174;SDS011;37240;50.104;20.010;2022-12-18T04:22:33;96.18;;;28.98;;
51174;SDS011;37240;50.104;20.010;2022-12-18T04:27:34;102.53;;;31.60;;
51174;SDS011;37240;50.104;20.010;2022-12-18T04:32:34;106.53;;;32.17;;
51174;SDS011;37240;50.104;20.010;2022-12-18T04:37:35;101.95;;;32.45;;
51174;SDS011;37240;50.104;20.010;2022-12-18T04:42:35;112.97;;;33.47;;
51174;SDS011;37240;50.104;20.010;2022-12-18T04:47:36;114.03;;;31.95;;
51174;SDS011;37240;50.104;20.010;2022-12-18T04:52:36;109.97;;;33.35;;
51174;SDS011;37240;50.104;20.010;2022-12-18T04:57:37;113.55;;;33.30;;
51174;SDS011;37240;50.104;20.010;2022-12-18T05:02:37;125.93;;;35.92;;
51174;SDS011;37240;50.104;20.010;2022-12-18T05:07:38;109.32;;;33.67;;
51174;SDS011;37240;50.104;20.010;2022-12-18T05:12:39;114.32;;;33.85;;
51174;SDS011;37240;50.104;20.010;2022-12-18T05:17:39;110.32;;;32.17;;
51174;SDS011;37240;50.104;20.010;2022-12-18T05:22:40;125.47;;;36.08;;
51174;SDS011;37240;50.104;20.010;2022-12-18T05:27:40;117.88;;;35.90;;
51174;SDS011;37240;50.104;20.010;2022-12-18T05:32:41;108.38;;;33.45;;
51174;SDS011;37240;50.104;20.010;2022-12-18T05:37:42;121.25;;;34.97;;
51174;SDS011;37240;50.104;20.010;2022-12-18T05:42:43;111.43;;;33.63;;
51174;SDS011;37240;50.104;20.010;2022-12-18T05:47:43;106.35;;;33.47;;
51174;SDS011;37240;50.104;20.010;2022-12-18T05:52:44;116.35;;;35.05;;
51174;SDS011;37240;50.104;20.010;2022-12-18T05:57:44;113.22;;;35.00;;
51174;SDS011;37240;50.104;20.010;2022-12-18T06:02:48;118.53;;;34.78;;
51174;SDS011;37240;50.104;20.010;2022-12-18T06:07:48;117.25;;;33.40;;
51174;SDS011;37240;50.104;20.010;2022-12-18T06:12:49;109.32;;;33.60;;
51174;SDS011;37240;50.104;20.010;2022-12-18T06:17:49;112.85;;;35.45;;
51174;SDS011;37240;50.104;20.010;2022-12-18T06:22:51;110.57;;;35.47;;
51174;SDS011;37240;50.104;20.010;2022-12-18T06:27:51;102.57;;;34.28;;
51174;SDS011;37240;50.104;20.010;2022-12-18T06:32:52;109.47;;;34.38;;
51174;SDS011;37240;50.104;20.010;2022-12-18T06:37:52;121.53;;;36.22;;
51174;SDS011;37240;50.104;20.010;2022-12-18T06:42:53;121.88;;;37.33;;
51174;SDS011;37240;50.104;20.010;2022-12-18T06:47:53;121.00;;;35.78;;
51174;SDS011;37240;50.104;20.010;2022-12-18T06:52:54;109.68;;;34.47;;
51174;SDS011;37240;50.104;20.010;2022-12-18T06:57:54;108.45;;;34.25;;
51174;SDS011;37240;50.104;20.010;2022-12-18T07:02:55;110.63;;;35.25;;
51174;SDS011;37240;50.104;20.010;2022-12-18T07:07:55;109.45;;;33.42;;
51174;SDS011;37240;50.104;20.010;2022-12-18T07:12:56;111.32;;;35.22;;
51174;SDS011;37240;50.104;20.010;2022-12-18T07:17:56;112.70;;;34.40;;
51174;SDS011;37240;50.104;20.010;2022-12-18T07:22:57;115.18;;;34.85;;
51174;SDS011;37240;50.104;20.010;2022-12-18T07:27:57;110.82;;;34.13;;
51174;SDS011;37240;50.104;20.010;2022-12-18T07:32:58;124.72;;;36.70;;
51174;SDS011;37240;50.104;20.010;2022-12-18T07:37:58;124.78;;;35.08;;
51174;SDS011;37240;50.104;20.010;2022-12-18T07:42:59;125.15;;;37.95;;
51174;SDS011;37240;50.104;20.010;2022-12-18T07:47:59;113.40;;;33.70;;
51174;SDS011;37240;50.104;20.010;2022-12-18T07:53:00;115.70;;;34.60;;
51174;SDS011;37240;50.104;20.010;2022-12-18T07:58:01;117.60;;;34.35;;
51174;SDS011;37240;50.104;20.010;2022-12-18T08:03:02;112.70;;;34.58;;
51174;SDS011;37240;50.104;20.010;2022-12-18T08:08:03;112.13;;;35.97;;
51174;SDS011;37240;50.104;20.010;2022-12-18T08:13:03;113.60;;;36.78;;
51174;SDS011;37240;50.104;20.010;2022-12-18T08:18:04;118.80;;;35.08;;
51174;SDS011;37240;50.104;20.010;2022-12-18T08:23:04;110.10;;;34.92;;
51174;SDS011;37240;50.104;20.010;2022-12-18T08:28:05;123.38;;;38.95;;
51174;SDS011;37240;50.104;20.010;2022-12-18T08:33:05;121.40;;;39.97;;
51174;SDS011;37240;50.104;20.010;2022-12-18T08:38:06;120.65;;;37.28;;
51174;SDS011;37240;50.104;20.010;2022-12-18T08:43:07;134.30;;;39.25;;
51174;SDS011;37240;50.104;20.010;2022-12-18T08:48:09;116.68;;;33.40;;
51174;SDS011;37240;50.104;20.010;2022-12-18T08:53:10;137.07;;;42.50;;
51174;SDS011;37240;50.104;20.010;2022-12-18T08:58:10;112.88;;;35.70;;
51174;SDS011;37240;50.104;20.010;2022-12-18T09:03:14;124.68;;;35.38;;
51174;SDS011;37240;50.104;20.010;2022-12-18T09:08:16;122.30;;;38.55;;
51174;SDS011;37240;50.104;20.010;2022-12-18T09:13:16;102.45;;;32.92;;
51174;SDS011;37240;50.104;20.010;2022-12-18T09:18:18;98.85;;;34.03;;
51174;SDS011;37240;50.104;20.010;2022-12-18T09:23:20;109.95;;;34.95;;
51174;SDS011;37240;50.104;20.010;2022-12-18T09:28:21;113.95;;;35.80;;
51174;SDS011;37240;50.104;20.010;2022-12-18T09:33:22;102.68;;;32.65;;
51174;SDS011;37240;50.104;20.010;2022-12-18T09:38:22;111.22;;;32.15;;
51174;SDS011;37240;50.104;20.010;2022-12-18T09:43:24;107.32;;;33.63;;
51174;SDS011;37240;50.104;20.010;2022-12-18T09:48:34;83.00;;;26.30;;
51174;SDS011;37240;50.104;20.010;2022-12-18T09:53:38;131.27;;;39.55;;
51174;SDS011;37240;50.104;20.010;2022-12-18T09:58:46;111.13;;;36.95;;
51174;SDS011;37240;50.104;20.010;2022-12-18T10:04:00;110.63;;;35.58;;
51174;SDS011;37240;50.104;20.010;2022-12-18T10:09:05;115.20;;;37.30;;
51174;SDS011;37240;50.104;20.010;2022-12-18T10:14:43;134.90;;;38.88;;
51174;SDS011;37240;50.104;20.010;2022-12-18T10:20:11;115.95;;;36.85;;
51174;SDS011;37240;50.104;20.010;2022-12-18T10:30:20;124.10;;;41.37;;
51174;SDS011;37240;50.104;20.010;2022-12-18T10:35:26;116.43;;;37.65;;
51174;SDS011;37240;50.104;20.010;2022-12-18T10:40:27;117.47;;;38.38;;
51174;SDS011;37240;50.104;20.010;2022-12-18T10:45:27;128.00;;;37.75;;
51174;SDS011;37240;50.104;20.010;2022-12-18T10:50:32;109.97;;;37.10;;
51174;SDS011;37240;50.104;20.010;2022-12-18T10:55:35;122.47;;;39.63;;
51174;SDS011;37240;50.104;20.010;2022-12-18T11:00:38;119.00;;;37.85;;
51174;SDS011;37240;50.104;20.010;2022-12-18T11:05:38;129.82;;;40.88;;
51174;SDS011;37240;50.104;20.010;2022-12-18T11:10:39;127.40;;;41.40;;
51174;SDS011;37240;50.104;20.010;2022-12-18T11:15:46;156.93;;;46.45;;
51174;SDS011;37240;50.104;20.010;2022-12-18T11:21:06;125.57;;;38.17;;
51174;SDS011;37240;50.104;20.010;2022-12-18T11:26:08;110.20;;;36.90;;
51174;SDS011;37240;50.104;20.010;2022-12-18T11:36:21;129.00;;;39.88;;
51174;SDS011;37240;50.104;20.010;2022-12-18T11:46:36;102.53;;;32.58;;
51174;SDS011;37240;50.104;20.010;2022-12-18T11:51:50;76.05;;;26.02;;
51174;SDS011;37240;50.104;20.010;2022-12-18T11:57:17;93.63;;;28.77;;
51174;SDS011;37240;50.104;20.010;2022-12-18T12:17:51;89.25;;;26.92;;
51174;SDS011;37240;50.104;20.010;2022-12-18T12:23:30;78.93;;;24.77;;
51174;SDS011;37240;50.104;20.010;2022-12-18T12:39:14;92.70;;;27.63;;
51174;SDS011;37240;50.104;20.010;2022-12-18T12:44:26;94.07;;;30.05;;
51174;SDS011;37240;50.104;20.010;2022-12-18T12:49:31;97.53;;;30.52;;
51174;SDS011;37240;50.104;20.010;2022-12-18T12:54:33;104.53;;;29.70;;
51174;SDS011;37240;50.104;20.010;2022-12-18T13:15:31;93.85;;;29.10;;
51174;SDS011;37240;50.104;20.010;2022-12-18T13:20:40;86.65;;;28.70;;
51174;SDS011;37240;50.104;20.010;2022-12-18T13:25:43;90.35;;;27.98;;
51174;SDS011;37240;50.104;20.010;2022-12-18T13:30:45;89.80;;;27.38;;
51174;SDS011;37240;50.104;20.010;2022-12-18T13:46:41;100.63;;;32.53;;
51174;SDS011;37240;50.104;20.010;2022-12-18T13:51:22;91.15;;;28.90;;
51174;SDS011;37240;50.104;20.010;2022-12-18T13:56:26;91.70;;;28.73;;
51174;SDS011;37240;50.104;20.010;2022-12-18T14:01:28;92.85;;;29.30;;
51174;SDS011;37240;50.104;20.010;2022-12-18T14:06:29;104.15;;;33.92;;
51174;SDS011;37240;50.104;20.010;2022-12-18T14:11:29;107.22;;;33.60;;
51174;SDS011;37240;50.104;20.010;2022-12-18T14:16:30;115.80;;;31.48;;
51174;SDS011;37240;50.104;20.010;2022-12-18T14:21:31;123.13;;;35.08;;
51174;SDS011;37240;50.104;20.010;2022-12-18T14:26:33;119.40;;;35.78;;
51174;SDS011;37240;50.104;20.010;2022-12-18T14:31:34;126.28;;;40.13;;
51174;SDS011;37240;50.104;20.010;2022-12-18T14:36:34;170.90;;;52.63;;
51174;SDS011;37240;50.104;20.010;2022-12-18T14:41:35;142.50;;;41.05;;
51174;SDS011;37240;50.104;20.010;2022-12-18T14:46:36;146.20;;;42.30;;
51174;SDS011;37240;50.104;20.010;2022-12-18T14:52:03;154.85;;;45.30;;
51174;SDS011;37240;50.104;20.010;2022-12-18T14:57:14;131.45;;;42.55;;
51174;SDS011;37240;50.104;20.010;2022-12-18T15:02:25;142.48;;;42.60;;
51174;SDS011;37240;50.104;20.010;2022-12-18T15:07:38;136.77;;;44.05;;
51174;SDS011;37240;50.104;20.010;2022-12-18T15:13:08;157.63;;;45.42;;
51174;SDS011;37240;50.104;20.010;2022-12-18T15:23:19;174.43;;;53.40;;
51174;SDS011;37240;50.104;20.010;2022-12-18T15:28:37;151.50;;;50.65;;
51174;SDS011;37240;50.104;20.010;2022-12-18T15:33:44;164.68;;;50.67;;
51174;SDS011;37240;50.104;20.010;2022-12-18T15:39:05;159.60;;;49.53;;
51174;SDS011;37240;50.104;20.010;2022-12-18T15:44:20;173.05;;;54.10;;
51174;SDS011;37240;50.104;20.010;2022-12-18T15:49:22;166.02;;;50.67;;
51174;SDS011;37240;50.104;20.010;2022-12-18T15:54:23;194.10;;;58.58;;
51174;SDS011;37240;50.104;20.010;2022-12-18T15:59:24;168.18;;;51.17;;
51174;SDS011;37240;50.104;20.010;2022-12-18T16:04:24;179.02;;;51.65;;
51174;SDS011;37240;50.104;20.010;2022-12-18T16:09:25;182.95;;;51.58;;
51174;SDS011;37240;50.104;20.010;2022-12-18T16:14:26;257.45;;;79.22;;
51174;SDS011;37240;50.104;20.010;2022-12-18T16:19:31;177.40;;;52.58;;
51174;SDS011;37240;50.104;20.010;2022-12-18T16:24:32;164.90;;;51.90;;
51174;SDS011;37240;50.104;20.010;2022-12-18T16:29:33;169.85;;;51.65;;
51174;SDS011;37240;50.104;20.010;2022-12-18T16:34:34;169.02;;;50.13;;
51174;SDS011;37240;50.104;20.010;2022-12-18T16:39:35;175.02;;;51.83;;
51174;SDS011;37240;50.104;20.010;2022-12-18T16:44:36;150.35;;;42.67;;
51174;SDS011;37240;50.104;20.010;2022-12-18T16:49:37;160.90;;;43.17;;
51174;SDS011;37240;50.104;20.010;2022-12-18T16:54:38;160.20;;;45.85;;
51174;SDS011;37240;50.104;20.010;2022-12-18T16:59:38;141.60;;;42.53;;
51174;SDS011;37240;50.104;20.010;2022-12-18T17:04:39;175.25;;;54.97;;
51174;SDS011;37240;50.104;20.010;2022-12-18T17:09:39;160.10;;;48.97;;
51174;SDS011;37240;50.104;20.010;2022-12-18T17:14:40;251.18;;;80.45;;
51174;SDS011;37240;50.104;20.010;2022-12-18T17:19:43;154.35;;;46.40;;
51174;SDS011;37240;50.104;20.010;2022-12-18T17:24:44;149.48;;;45.80;;
51174;SDS011;37240;50.104;20.010;2022-12-18T17:29:46;154.35;;;51.33;;
51174;SDS011;37240;50.104;20.010;2022-12-18T17:34:46;167.38;;;52.10;;
51174;SDS011;37240;50.104;20.010;2022-12-18T17:39:47;135.93;;;45.88;;
51174;SDS011;37240;50.104;20.010;2022-12-18T17:44:47;147.65;;;47.50;;
51174;SDS011;37240;50.104;20.010;2022-12-18T17:49:48;140.80;;;45.00;;
51174;SDS011;37240;50.104;20.010;2022-12-18T17:54:48;154.82;;;47.08;;
51174;SDS011;37240;50.104;20.010;2022-12-18T17:59:49;157.77;;;48.83;;
51174;SDS011;37240;50.104;20.010;2022-12-18T18:04:49;149.85;;;45.20;;
51174;SDS011;37240;50.104;20.010;2022-12-18T18:09:50;159.57;;;49.38;;
51174;SDS011;37240;50.104;20.010;2022-12-18T18:14:50;186.18;;;58.95;;
51174;SDS011;37240;50.104;20.010;2022-12-18T18:19:51;162.75;;;50.47;;
51174;SDS011;37240;50.104;20.010;2022-12-18T18:24:51;186.10;;;54.08;;
51174;SDS011;37240;50.104;20.010;2022-12-18T18:29:52;162.98;;;49.67;;
51174;SDS011;37240;50.104;20.010;2022-12-18T18:34:52;171.10;;;50.10;;
51174;SDS011;37240;50.104;20.010;2022-12-18T18:39:53;166.20;;;49.60;;
51174;SDS011;37240;50.104;20.010;2022-12-18T18:44:53;158.80;;;48.17;;
51174;SDS011;37240;50.104;20.010;2022-12-18T18:49:54;159.57;;;47.47;;
51174;SDS011;37240;50.104;20.010;2022-12-18T18:54:54;152.38;;;44.67;;
51174;SDS011;37240;50.104;20.010;2022-12-18T18:59:55;138.10;;;42.30;;
51174;SDS011;37240;50.104;20.010;2022-12-18T19:04:55;161.88;;;48.28;;
51174;SDS011;37240;50.104;20.010;2022-12-18T19:09:56;158.45;;;46.28;;
51174;SDS011;37240;50.104;20.010;2022-12-18T19:14:58;161.40;;;47.95;;
51174;SDS011;37240;50.104;20.010;2022-12-18T19:19:58;153.48;;;47.22;;
51174;SDS011;37240;50.104;20.010;2022-12-18T19:24:59;156.10;;;46.20;;
51174;SDS011;37240;50.104;20.010;2022-12-18T19:29:59;141.45;;;45.00;;
51174;SDS011;37240;50.104;20.010;2022-12-18T19:35:00;146.15;;;43.70;;
51174;SDS011;37240;50.104;20.010;2022-12-18T19:40:00;156.13;;;45.55;;
51174;SDS011;37240;50.104;20.010;2022-12-18T19:45:01;199.73;;;62.53;;
51174;SDS011;37240;50.104;20.010;2022-12-18T19:50:02;186.23;;;53.40;;
51174;SDS011;37240;50.104;20.010;2022-12-18T19:55:03;155.10;;;46.08;;
51174;SDS011;37240;50.104;20.010;2022-12-18T20:00:04;171.23;;;50.15;;
51174;SDS011;37240;50.104;20.010;2022-12-18T20:05:05;163.85;;;46.15;;
51174;SDS011;37240;50.104;20.010;2022-12-18T20:10:09;158.15;;;47.75;;
51174;SDS011;37240;50.104;20.010;2022-12-18T20:15:12;153.73;;;44.25;;
51174;SDS011;37240;50.104;20.010;2022-12-18T20:20:13;152.93;;;43.35;;
51174;SDS011;37240;50.104;20.010;2022-12-18T20:25:13;132.40;;;40.95;;
51174;SDS011;37240;50.104;20.010;2022-12-18T20:30:14;152.13;;;40.72;;
51174;SDS011;37240;50.104;20.010;2022-12-18T20:35:14;131.00;;;40.03;;
51174;SDS011;37240;50.104;20.010;2022-12-18T20:40:15;142.85;;;40.55;;
51174;SDS011;37240;50.104;20.010;2022-12-18T20:45:16;135.20;;;41.45;;
51174;SDS011;37240;50.104;20.010;2022-12-18T20:50:16;144.38;;;41.50;;
51174;SDS011;37240;50.104;20.010;2022-12-18T20:55:17;126.22;;;39.92;;
51174;SDS011;37240;50.104;20.010;2022-12-18T21:00:18;112.57;;;35.25;;
51174;SDS011;37240;50.104;20.010;2022-12-18T21:05:18;125.95;;;38.10;;
51174;SDS011;37240;50.104;20.010;2022-12-18T21:10:19;124.05;;;39.08;;
51174;SDS011;37240;50.104;20.010;2022-12-18T21:15:19;141.73;;;41.17;;
51174;SDS011;37240;50.104;20.010;2022-12-18T21:20:21;143.70;;;39.50;;
51174;SDS011;37240;50.104;20.010;2022-12-18T21:25:21;133.10;;;37.60;;
51174;SDS011;37240;50.104;20.010;2022-12-18T21:30:22;126.35;;;36.83;;
51174;SDS011;37240;50.104;20.010;2022-12-18T21:35:23;140.45;;;41.30;;
51174;SDS011;37240;50.104;20.010;2022-12-18T21:40:23;135.50;;;38.22;;
51174;SDS011;37240;50.104;20.010;2022-12-18T21:45:24;136.82;;;40.47;;
51174;SDS011;37240;50.104;20.010;2022-12-18T21:50:24;149.55;;;42.65;;
51174;SDS011;37240;50.104;20.010;2022-12-18T21:55:25;146.25;;;42.67;;
51174;SDS011;37240;50.104;20.010;2022-12-18T22:00:25;155.35;;;44.10;;
51174;SDS011;37240;50.104;20.010;2022-12-18T22:05:26;139.73;;;44.22;;
51174;SDS011;37240;50.104;20.010;2022-12-18T22:10:26;142.85;;;43.58;;
51174;SDS011;37240;50.104;20.010;2022-12-18T22:15:27;146.27;;;43.85;;
51174;SDS011;37240;50.104;20.010;2022-12-18T22:20:27;143.10;;;44.00;;
51174;SDS011;37240;50.104;20.010;2022-12-18T22:25:29;146.05;;;42.97;;
51174;SDS011;37240;50.104;20.010;2022-12-18T22:30:29;141.38;;;40.95;;
51174;SDS011;37240;50.104;20.010;2022-12-18T22:35:30;146.20;;;40.50;;
51174;SDS011;37240;50.104;20.010;2022-12-18T22:40:30;148.15;;;39.25;;
51174;SDS011;37240;50.104;20.010;2022-12-18T22:45:31;145.00;;;42.03;;
51174;SDS011;37240;50.104;20.010;2022-12-18T22:50:32;157.50;;;45.30;;
51174;SDS011;37240;50.104;20.010;2022-12-18T22:55:32;136.50;;;40.40;;
51174;SDS011;37240;50.104;20.010;2022-12-18T23:00:33;147.02;;;45.03;;
51174;SDS011;37240;50.104;20.010;2022-12-18T23:05:33;171.55;;;45.33;;
51174;SDS011;37240;50.104;20.010;2022-12-18T23:10:37;167.30;;;47.20;;
51174;SDS011;37240;50.104;20.010;2022-12-18T23:15:41;174.77;;;47.53;;
51174;SDS011;37240;50.104;20.010;2022-12-18T23:20:41;131.25;;;42.70;;
51174;SDS011;37240;50.104;20.010;2022-12-18T23:25:42;143.57;;;43.08;;
51174;SDS011;37240;50.104;20.010;2022-12-18T23:30:43;149.18;;;44.63;;
51174;SDS011;37240;50.104;20.010;2022-12-18T23:35:43;148.30;;;42.95;;
51174;SDS011;37240;50.104;20.010;2022-12-18T23:40:44;145.38;;;43.83;;
51174;SDS011;37240;50.104;20.010;2022-12-18T23:45:44;137.63;;;43.22;;
51174;SDS011;37240;50.104;20.010;2022-12-18T23:50:45;163.82;;;48.05;;
51174;SDS011;37240;50.104;20.010;2022-12-18T23:55:45;142.13;;;43.92;;
